PWSweather.com
Personal Weather Stations
Station Observations
IMAZOWIE6
WarszawaPL

WarszawaPL

Lat: 52.27957, Lon: 21.05489

Elevation: 100

Station Type: WS1080

http://stacjapogody.waw.pl/

High Low Average
Temperature 91.0°F32.8°F 65.5°F18.6°F 77.7°F25.4°F
Dew Point -163.7°F-108.7°F -166.3°F-110.2°F -165.0°F-109.4°F
Winds 4.8 mph 7.7 mph Calm Calm 1.3 mph 2.1 mph
Wind Gusts 7.4 mph11.9 mph -- 3.0 mph4.8 mph
Humidity 0% 0% 0%
Pressure 29.63 in1003.40 in 29.42 in996.30 in -
Precipitation 0.00 in0.00 in - -
Hour Temp Dew Point Humidity Winds Wind Gusts Pressure Precip Precip Rate Daily Precip Total
12:02 AM 68.5°F20.3°C -165.9°F-109.9°C - 1.4 mph N2.3 kmh N 2.0 mph3.2 kmh 29.63 in1003.4 mb 0.00 in0.0 mm 0.00 in0.0 mm 0.00 in0.0 mm
12:17 AM 68.4°F20.2°C -166.0°F-110.0°C - 1.4 mph N2.3 kmh N 2.8 mph4.5 kmh 29.62 in1003.0 mb 0.00 in0.0 mm 0.00 in0.0 mm 0.00 in0.0 mm
12:32 AM 67.6°F19.8°C -166.0°F-110.0°C - 0.6 mph N1.0 kmh N 2.0 mph3.2 kmh 29.62 in1003.0 mb 0.00 in0.0 mm 0.00 in0.0 mm 0.00 in0.0 mm
12:47 AM 67.3°F19.6°C -166.1°F-110.1°C - 0.6 mph N1.0 kmh N 2.8 mph4.5 kmh 29.61 in1002.7 mb 0.00 in0.0 mm 0.00 in0.0 mm 0.00 in0.0 mm
01:02 AM 67.1°F19.5°C -166.1°F-110.1°C - Calm Calm 2.8 mph4.5 kmh 29.61 in1002.7 mb 0.00 in0.0 mm 0.00 in0.0 mm 0.00 in0.0 mm
01:17 AM 66.9°F19.4°C -166.1°F-110.1°C - 0.6 mph N1.0 kmh N 2.0 mph3.2 kmh 29.61 in1002.7 mb 0.00 in0.0 mm 0.00 in0.0 mm 0.00 in0.0 mm
01:32 AM 66.6°F19.2°C -166.1°F-110.1°C - 1.4 mph N2.3 kmh N 4.0 mph6.4 kmh 29.60 in1002.4 mb 0.00 in0.0 mm 0.00 in0.0 mm 0.00 in0.0 mm
01:47 AM 66.7°F19.3°C -166.1°F-110.1°C - 3.4 mph N5.5 kmh N 6.2 mph10.0 kmh 29.60 in1002.4 mb 0.00 in0.0 mm 0.00 in0.0 mm 0.00 in0.0 mm
02:02 AM 66.9°F19.4°C -166.1°F-110.1°C - 2.0 mph N3.2 kmh N 4.8 mph7.7 kmh 29.59 in1002.0 mb 0.00 in0.0 mm 0.00 in0.0 mm 0.00 in0.0 mm
02:17 AM 66.9°F19.4°C -166.1°F-110.1°C - 0.6 mph N1.0 kmh N 2.8 mph4.5 kmh 29.59 in1002.0 mb 0.00 in0.0 mm 0.00 in0.0 mm 0.00 in0.0 mm
02:33 AM 66.7°F19.3°C -166.1°F-110.1°C - 2.0 mph N3.2 kmh N 4.0 mph6.4 kmh 29.59 in1002.0 mb 0.00 in0.0 mm 0.00 in0.0 mm 0.00 in0.0 mm
02:47 AM 66.4°F19.1°C -166.2°F-110.1°C - 2.0 mph N3.2 kmh N 5.4 mph8.7 kmh 29.57 in1001.4 mb 0.00 in0.0 mm 0.00 in0.0 mm 0.00 in0.0 mm
03:02 AM 65.8°F18.8°C -166.2°F-110.1°C - 0.6 mph N1.0 kmh N 3.4 mph5.5 kmh 29.57 in1001.4 mb 0.00 in0.0 mm 0.00 in0.0 mm 0.00 in0.0 mm
03:17 AM 65.5°F18.6°C -166.3°F-110.2°C - Calm Calm 0.6 mph1.0 kmh 29.57 in1001.4 mb 0.00 in0.0 mm 0.00 in0.0 mm 0.00 in0.0 mm
03:32 AM 65.7°F18.7°C -166.2°F-110.1°C - Calm Calm 1.4 mph2.3 kmh 29.56 in1001.0 mb 0.00 in0.0 mm 0.00 in0.0 mm 0.00 in0.0 mm
03:47 AM 66.6°F19.2°C -166.1°F-110.1°C - 0.6 mph N1.0 kmh N 2.8 mph4.5 kmh 29.55 in1000.7 mb 0.00 in0.0 mm 0.00 in0.0 mm 0.00 in0.0 mm
04:02 AM 68.0°F20.0°C -166.0°F-110.0°C - Calm Calm 1.4 mph2.3 kmh 29.55 in1000.7 mb 0.00 in0.0 mm 0.00 in0.0 mm 0.00 in0.0 mm
04:17 AM 67.1°F19.5°C -166.1°F-110.1°C - 0.6 mph N1.0 kmh N 2.0 mph3.2 kmh 29.55 in1000.7 mb 0.00 in0.0 mm 0.00 in0.0 mm 0.00 in0.0 mm
04:32 AM 68.4°F20.2°C -166.0°F-110.0°C - 0.6 mph N1.0 kmh N 2.0 mph3.2 kmh 29.55 in1000.7 mb 0.00 in0.0 mm 0.00 in0.0 mm 0.00 in0.0 mm
04:47 AM 71.4°F21.9°C -165.7°F-109.8°C - 0.6 mph N1.0 kmh N 2.0 mph3.2 kmh 29.55 in1000.7 mb 0.00 in0.0 mm 0.00 in0.0 mm 0.00 in0.0 mm
05:02 AM 75.6°F24.2°C -165.2°F-109.6°C - 1.4 mph N2.3 kmh N 2.8 mph4.5 kmh 29.54 in1000.3 mb 0.00 in0.0 mm 0.00 in0.0 mm 0.00 in0.0 mm
05:17 AM 79.0°F26.1°C -164.9°F-109.4°C - 1.4 mph N2.3 kmh N 3.4 mph5.5 kmh 29.54 in1000.3 mb 0.00 in0.0 mm 0.00 in0.0 mm 0.00 in0.0 mm
05:32 AM 76.5°F24.7°C -165.2°F-109.6°C - 1.4 mph N2.3 kmh N 4.0 mph6.4 kmh 29.53 in1000.0 mb 0.00 in0.0 mm 0.00 in0.0 mm 0.00 in0.0 mm
05:47 AM 79.5°F26.4°C -164.8°F-109.3°C - 2.0 mph N3.2 kmh N 4.0 mph6.4 kmh 29.53 in1000.0 mb 0.00 in0.0 mm 0.00 in0.0 mm 0.00 in0.0 mm
06:02 AM 78.3°F25.7°C -165.0°F-109.4°C - 1.4 mph N2.3 kmh N 3.4 mph5.5 kmh 29.53 in1000.0 mb 0.00 in0.0 mm 0.00 in0.0 mm 0.00 in0.0 mm
06:17 AM 83.8°F28.8°C -164.4°F-109.1°C - 0.6 mph N1.0 kmh N 2.8 mph4.5 kmh 29.53 in1000.0 mb 0.00 in0.0 mm 0.00 in0.0 mm 0.00 in0.0 mm
06:32 AM 85.1°F29.5°C -164.3°F-109.1°C - 1.4 mph N2.3 kmh N 3.4 mph5.5 kmh 29.52 in999.7 mb 0.00 in0.0 mm 0.00 in0.0 mm 0.00 in0.0 mm
06:47 AM 86.7°F30.4°C -164.1°F-108.9°C - 1.4 mph N2.3 kmh N 3.4 mph5.5 kmh 29.52 in999.7 mb 0.00 in0.0 mm 0.00 in0.0 mm 0.00 in0.0 mm
07:02 AM 88.7°F31.5°C -163.9°F-108.8°C - 2.8 mph N4.5 kmh N 4.8 mph7.7 kmh 29.52 in999.7 mb 0.00 in0.0 mm 0.00 in0.0 mm 0.00 in0.0 mm
07:17 AM 89.2°F31.8°C -163.9°F-108.8°C - 0.6 mph N1.0 kmh N 3.4 mph5.5 kmh 29.52 in999.7 mb 0.00 in0.0 mm 0.00 in0.0 mm 0.00 in0.0 mm
07:32 AM 90.3°F32.4°C -163.8°F-108.8°C - 2.8 mph N4.5 kmh N 5.4 mph8.7 kmh 29.51 in999.3 mb 0.00 in0.0 mm 0.00 in0.0 mm 0.00 in0.0 mm
07:47 AM 91.0°F32.8°C -163.7°F-108.7°C - 2.0 mph N3.2 kmh N 5.4 mph8.7 kmh 29.52 in999.7 mb 0.00 in0.0 mm 0.00 in0.0 mm 0.00 in0.0 mm
08:02 AM 88.0°F31.1°C -164.0°F-108.9°C - 1.4 mph N2.3 kmh N 3.4 mph5.5 kmh 29.51 in999.3 mb 0.00 in0.0 mm 0.00 in0.0 mm 0.00 in0.0 mm
08:17 AM 83.7°F28.7°C -164.4°F-109.1°C - 1.4 mph N2.3 kmh N 3.4 mph5.5 kmh 29.51 in999.3 mb 0.00 in0.0 mm 0.00 in0.0 mm 0.00 in0.0 mm
08:32 AM 82.8°F28.2°C -164.5°F-109.2°C - 2.0 mph N3.2 kmh N 4.0 mph6.4 kmh 29.51 in999.3 mb 0.00 in0.0 mm 0.00 in0.0 mm 0.00 in0.0 mm
08:47 AM 82.8°F28.2°C -164.5°F-109.2°C - 2.8 mph N4.5 kmh N 7.4 mph11.9 kmh 29.51 in999.3 mb 0.00 in0.0 mm 0.00 in0.0 mm 0.00 in0.0 mm
09:02 AM 81.9°F27.7°C -164.6°F-109.2°C - 2.8 mph N4.5 kmh N 4.8 mph7.7 kmh 29.51 in999.3 mb 0.00 in0.0 mm 0.00 in0.0 mm 0.00 in0.0 mm
09:17 AM 82.8°F28.2°C -164.5°F-109.2°C - 2.8 mph N4.5 kmh N 5.4 mph8.7 kmh 29.50 in999.0 mb 0.00 in0.0 mm 0.00 in0.0 mm 0.00 in0.0 mm
09:32 AM 85.1°F29.5°C -164.3°F-109.1°C - 2.8 mph N4.5 kmh N 4.8 mph7.7 kmh 29.50 in999.0 mb 0.00 in0.0 mm 0.00 in0.0 mm 0.00 in0.0 mm
09:47 AM 86.5°F30.3°C -164.1°F-108.9°C - 4.0 mph N6.4 kmh N 6.2 mph10.0 kmh 29.51 in999.3 mb 0.00 in0.0 mm 0.00 in0.0 mm 0.00 in0.0 mm
10:02 AM 86.4°F30.2°C -164.2°F-109.0°C - 2.8 mph N4.5 kmh N 4.8 mph7.7 kmh 29.50 in999.0 mb 0.00 in0.0 mm 0.00 in0.0 mm 0.00 in0.0 mm
10:17 AM 86.2°F30.1°C -164.2°F-109.0°C - 1.4 mph N2.3 kmh N 4.0 mph6.4 kmh 29.50 in999.0 mb 0.00 in0.0 mm 0.00 in0.0 mm 0.00 in0.0 mm
10:32 AM 85.1°F29.5°C -164.3°F-109.1°C - 3.4 mph N5.5 kmh N 6.2 mph10.0 kmh 29.50 in999.0 mb 0.00 in0.0 mm 0.00 in0.0 mm 0.00 in0.0 mm
10:47 AM 83.7°F28.7°C -164.4°F-109.1°C - 2.8 mph N4.5 kmh N 4.8 mph7.7 kmh 29.50 in999.0 mb 0.00 in0.0 mm 0.00 in0.0 mm 0.00 in0.0 mm
11:02 AM 82.0°F27.8°C -164.6°F-109.2°C - 2.0 mph N3.2 kmh N 4.0 mph6.4 kmh 29.50 in999.0 mb 0.00 in0.0 mm 0.00 in0.0 mm 0.00 in0.0 mm
11:17 AM 82.0°F27.8°C -164.6°F-109.2°C - 0.6 mph N1.0 kmh N 3.4 mph5.5 kmh 29.50 in999.0 mb 0.00 in0.0 mm 0.00 in0.0 mm 0.00 in0.0 mm
11:32 AM 81.1°F27.3°C -164.7°F-109.3°C - 2.8 mph N4.5 kmh N 5.4 mph8.7 kmh 29.50 in999.0 mb 0.00 in0.0 mm 0.00 in0.0 mm 0.00 in0.0 mm
11:47 AM 82.2°F27.9°C -164.6°F-109.2°C - 2.8 mph N4.5 kmh N 5.4 mph8.7 kmh 29.50 in999.0 mb 0.00 in0.0 mm 0.00 in0.0 mm 0.00 in0.0 mm
12:02 PM 83.5°F28.6°C -164.5°F-109.2°C - 2.0 mph N3.2 kmh N 4.0 mph6.4 kmh 29.49 in998.6 mb 0.00 in0.0 mm 0.00 in0.0 mm 0.00 in0.0 mm
12:17 PM 84.4°F29.1°C -164.4°F-109.1°C - 2.0 mph N3.2 kmh N 4.8 mph7.7 kmh 29.49 in998.6 mb 0.00 in0.0 mm 0.00 in0.0 mm 0.00 in0.0 mm
12:32 PM 84.6°F29.2°C -164.3°F-109.1°C - 3.4 mph N5.5 kmh N 6.2 mph10.0 kmh 29.49 in998.6 mb 0.00 in0.0 mm 0.00 in0.0 mm 0.00 in0.0 mm
12:47 PM 84.0°F28.9°C -164.4°F-109.1°C - 2.0 mph N3.2 kmh N 4.8 mph7.7 kmh 29.48 in998.3 mb 0.00 in0.0 mm 0.00 in0.0 mm 0.00 in0.0 mm
01:02 PM 83.7°F28.7°C -164.4°F-109.1°C - 0.6 mph N1.0 kmh N 2.0 mph3.2 kmh 29.48 in998.3 mb 0.00 in0.0 mm 0.00 in0.0 mm 0.00 in0.0 mm
01:17 PM 83.8°F28.8°C -164.4°F-109.1°C - 2.8 mph N4.5 kmh N 6.2 mph10.0 kmh 29.47 in998.0 mb 0.00 in0.0 mm 0.00 in0.0 mm 0.00 in0.0 mm
01:32 PM 84.0°F28.9°C -164.4°F-109.1°C - 1.4 mph N2.3 kmh N 4.8 mph7.7 kmh 29.47 in998.0 mb 0.00 in0.0 mm 0.00 in0.0 mm 0.00 in0.0 mm
01:47 PM 84.0°F28.9°C -164.4°F-109.1°C - 4.8 mph N7.7 kmh N 6.8 mph10.9 kmh 29.46 in997.6 mb 0.00 in0.0 mm 0.00 in0.0 mm 0.00 in0.0 mm
02:02 PM 83.8°F28.8°C -164.4°F-109.1°C - 1.4 mph N2.3 kmh N 3.4 mph5.5 kmh 29.46 in997.6 mb 0.00 in0.0 mm 0.00 in0.0 mm 0.00 in0.0 mm
02:17 PM 84.2°F29.0°C -164.4°F-109.1°C - 1.4 mph N2.3 kmh N 3.4 mph5.5 kmh 29.46 in997.6 mb 0.00 in0.0 mm 0.00 in0.0 mm 0.00 in0.0 mm
02:32 PM 83.8°F28.8°C -164.4°F-109.1°C - 2.0 mph N3.2 kmh N 5.4 mph8.7 kmh 29.45 in997.3 mb 0.00 in0.0 mm 0.00 in0.0 mm 0.00 in0.0 mm
02:47 PM 84.0°F28.9°C -164.4°F-109.1°C - 1.4 mph N2.3 kmh N 2.8 mph4.5 kmh 29.45 in997.3 mb 0.00 in0.0 mm 0.00 in0.0 mm 0.00 in0.0 mm
03:02 PM 83.8°F28.8°C -164.4°F-109.1°C - 2.8 mph N4.5 kmh N 4.0 mph6.4 kmh 29.45 in997.3 mb 0.00 in0.0 mm 0.00 in0.0 mm 0.00 in0.0 mm
03:17 PM 83.8°F28.8°C -164.4°F-109.1°C - 0.6 mph N1.0 kmh N 2.0 mph3.2 kmh 29.44 in997.0 mb 0.00 in0.0 mm 0.00 in0.0 mm 0.00 in0.0 mm
03:32 PM 83.5°F28.6°C -164.5°F-109.2°C - 2.8 mph N4.5 kmh N 6.2 mph10.0 kmh 29.45 in997.3 mb 0.00 in0.0 mm 0.00 in0.0 mm 0.00 in0.0 mm
03:47 PM 83.3°F28.5°C -164.5°F-109.2°C - 4.0 mph N6.4 kmh N 6.8 mph10.9 kmh 29.44 in997.0 mb 0.00 in0.0 mm 0.00 in0.0 mm 0.00 in0.0 mm
04:02 PM 82.9°F28.3°C -164.5°F-109.2°C - 2.8 mph N4.5 kmh N 6.2 mph10.0 kmh 29.44 in997.0 mb 0.00 in0.0 mm 0.00 in0.0 mm 0.00 in0.0 mm
04:17 PM 83.1°F28.4°C -164.5°F-109.2°C - 1.4 mph N2.3 kmh N 4.0 mph6.4 kmh 29.44 in997.0 mb 0.00 in0.0 mm 0.00 in0.0 mm 0.00 in0.0 mm
04:32 PM 82.6°F28.1°C -164.5°F-109.2°C - 1.4 mph N2.3 kmh N 4.8 mph7.7 kmh 29.44 in997.0 mb 0.00 in0.0 mm 0.00 in0.0 mm 0.00 in0.0 mm
04:47 PM 82.2°F27.9°C -164.6°F-109.2°C - 1.4 mph N2.3 kmh N 3.4 mph5.5 kmh 29.43 in996.6 mb 0.00 in0.0 mm 0.00 in0.0 mm 0.00 in0.0 mm
05:02 PM 81.7°F27.6°C -164.6°F-109.2°C - 2.0 mph N3.2 kmh N 4.0 mph6.4 kmh 29.42 in996.3 mb 0.00 in0.0 mm 0.00 in0.0 mm 0.00 in0.0 mm
05:17 PM 81.3°F27.4°C -164.7°F-109.3°C - Calm Calm 0.6 mph1.0 kmh 29.42 in996.3 mb 0.00 in0.0 mm 0.00 in0.0 mm 0.00 in0.0 mm
05:32 PM 81.3°F27.4°C -164.7°F-109.3°C - 2.0 mph N3.2 kmh N 4.8 mph7.7 kmh 29.42 in996.3 mb 0.00 in0.0 mm 0.00 in0.0 mm 0.00 in0.0 mm
05:47 PM 81.1°F27.3°C -164.7°F-109.3°C - 0.6 mph N1.0 kmh N 2.8 mph4.5 kmh 29.42 in996.3 mb 0.00 in0.0 mm 0.00 in0.0 mm 0.00 in0.0 mm
06:02 PM 81.1°F27.3°C -164.7°F-109.3°C - Calm Calm 1.4 mph2.3 kmh 29.42 in996.3 mb 0.00 in0.0 mm 0.00 in0.0 mm 0.00 in0.0 mm
06:17 PM 80.6°F27.0°C -164.7°F-109.3°C - Calm Calm 1.4 mph2.3 kmh 29.42 in996.3 mb 0.00 in0.0 mm 0.00 in0.0 mm 0.00 in0.0 mm
06:32 PM 80.1°F26.7°C -164.8°F-109.3°C - Calm Calm -- 29.42 in996.3 mb 0.00 in0.0 mm 0.00 in0.0 mm 0.00 in0.0 mm
06:47 PM 79.9°F26.6°C -164.8°F-109.3°C - Calm Calm -- 29.42 in996.3 mb 0.00 in0.0 mm 0.00 in0.0 mm 0.00 in0.0 mm
07:02 PM 79.3°F26.3°C -164.9°F-109.4°C - Calm Calm 0.6 mph1.0 kmh 29.42 in996.3 mb 0.00 in0.0 mm 0.00 in0.0 mm 0.00 in0.0 mm
07:17 PM 78.3°F25.7°C -165.0°F-109.4°C - Calm Calm -- 29.42 in996.3 mb 0.00 in0.0 mm 0.00 in0.0 mm 0.00 in0.0 mm
07:32 PM 77.4°F25.2°C -165.1°F-109.5°C - Calm Calm -- 29.42 in996.3 mb 0.00 in0.0 mm 0.00 in0.0 mm 0.00 in0.0 mm
07:47 PM 76.6°F24.8°C -165.1°F-109.5°C - Calm Calm -- 29.43 in996.6 mb 0.00 in0.0 mm 0.00 in0.0 mm 0.00 in0.0 mm
08:02 PM 76.3°F24.6°C -165.2°F-109.6°C - Calm Calm -- 29.44 in997.0 mb 0.00 in0.0 mm 0.00 in0.0 mm 0.00 in0.0 mm
08:17 PM 75.6°F24.2°C -165.2°F-109.6°C - Calm Calm -- 29.44 in997.0 mb 0.00 in0.0 mm 0.00 in0.0 mm 0.00 in0.0 mm
08:32 PM 75.0°F23.9°C -165.3°F-109.6°C - Calm Calm -- 29.44 in997.0 mb 0.00 in0.0 mm 0.00 in0.0 mm 0.00 in0.0 mm
08:47 PM 73.9°F23.3°C -165.4°F-109.7°C - Calm Calm -- 29.45 in997.3 mb 0.00 in0.0 mm 0.00 in0.0 mm 0.00 in0.0 mm
09:02 PM 73.6°F23.1°C -165.4°F-109.7°C - Calm Calm -- 29.44 in997.0 mb 0.00 in0.0 mm 0.00 in0.0 mm 0.00 in0.0 mm
09:17 PM 73.4°F23.0°C -165.5°F-109.7°C - Calm Calm -- 29.45 in997.3 mb 0.00 in0.0 mm 0.00 in0.0 mm 0.00 in0.0 mm
09:32 PM 72.3°F22.4°C -165.6°F-109.8°C - Calm Calm -- 29.45 in997.3 mb 0.00 in0.0 mm 0.00 in0.0 mm 0.00 in0.0 mm
09:47 PM 71.1°F21.7°C -165.7°F-109.8°C - Calm Calm -- 29.46 in997.6 mb 0.00 in0.0 mm 0.00 in0.0 mm 0.00 in0.0 mm
10:02 PM 69.8°F21.0°C -165.8°F-109.9°C - Calm Calm -- 29.46 in997.6 mb 0.00 in0.0 mm 0.00 in0.0 mm 0.00 in0.0 mm
10:17 PM 69.3°F20.7°C -165.9°F-109.9°C - Calm Calm -- 29.46 in997.6 mb 0.00 in0.0 mm 0.00 in0.0 mm 0.00 in0.0 mm
10:32 PM 68.4°F20.2°C -166.0°F-110.0°C - Calm Calm -- 29.45 in997.3 mb 0.00 in0.0 mm 0.00 in0.0 mm 0.00 in0.0 mm
10:47 PM 68.0°F20.0°C -166.0°F-110.0°C - Calm Calm -- 29.46 in997.6 mb 0.00 in0.0 mm 0.00 in0.0 mm 0.00 in0.0 mm
11:02 PM 67.5°F19.7°C -166.1°F-110.1°C - Calm Calm -- 29.46 in997.6 mb 0.00 in0.0 mm 0.00 in0.0 mm 0.00 in0.0 mm
11:17 PM 67.1°F19.5°C -166.1°F-110.1°C - Calm Calm -- 29.46 in997.6 mb 0.00 in0.0 mm 0.00 in0.0 mm 0.00 in0.0 mm
11:32 PM 66.6°F19.2°C -166.1°F-110.1°C - Calm Calm -- 29.46 in997.6 mb 0.00 in0.0 mm 0.00 in0.0 mm 0.00 in0.0 mm
11:47 PM 66.2°F19.0°C -166.2°F-110.1°C - Calm Calm -- 29.47 in998.0 mb 0.00 in0.0 mm 0.00 in0.0 mm 0.00 in0.0 mm